Time;durP1;ratioP1;P1;durP2;ratioP2;P2;SDS_P1;SDS_P2;PMS_P1;PMS_P2;Temp;Humidity;BMP_temperature;BMP_pressure;BME280_temperature;BME280_humidity;BME280_pressure;Samples;Min_cycle;Max_cycle;Signal;HPM_P1;HPM_P2
2022/05/25 00:01:40;;;;;;;5.00;2.60;;;;;;;;;;5033439;28;20445;-62
2022/05/25 00:04:07;;;;;;;2.93;2.50;;;;;;;;;;5032861;28;20504;-62
2022/05/25 00:06:35;;;;;;;3.10;2.63;;;;;;;;;;5032908;28;20959;-62
2022/05/25 00:09:02;;;;;;;2.97;2.70;;;;;;;;;;5032847;28;20507;-62
2022/05/25 00:11:29;;;;;;;3.40;3.10;;;;;;;;;;5033080;28;20457;-62
2022/05/25 00:13:58;;;;;;;3.70;2.70;;;;;;;;;;5032960;28;20488;-62
2022/05/25 00:16:25;;;;;;;4.43;2.40;;;;;;;;;;5032800;28;20453;-62
2022/05/25 00:21:37;;;;;;;6.43;2.87;;;;;;;;;;5033017;28;20404;-61
2022/05/25 00:24:05;;;;;;;4.67;3.33;;;;;;;;;;5032995;28;20465;-61
2022/05/25 00:26:33;;;;;;;3.10;2.50;;;;;;;;;;5037003;28;20444;-62
2022/05/25 00:29:02;;;;;;;2.97;2.60;;;;;;;;;;5037225;28;20473;-62
2022/05/25 00:31:30;;;;;;;2.40;2.20;;;;;;;;;;5037302;28;20461;-62
2022/05/25 00:33:58;;;;;;;2.57;2.37;;;;;;;;;;5037020;28;20485;-62
2022/05/25 00:36:25;;;;;;;3.50;2.20;;;;;;;;;;5036857;28;20452;-62
2022/05/25 00:38:53;;;;;;;3.23;2.40;;;;;;;;;;5036942;28;20830;-62
2022/05/25 00:41:23;;;;;;;2.13;2.03;;;;;;;;;;5036850;28;20798;-62
2022/05/25 00:43:51;;;;;;;2.93;2.73;;;;;;;;;;5036828;28;20460;-62
2022/05/25 00:46:21;;;;;;;2.83;2.30;;;;;;;;;;5036518;28;20964;-64
2022/05/25 00:48:50;;;;;;;2.57;2.37;;;;;;;;;;5036437;28;20512;-63
2022/05/25 00:51:22;;;;;;;3.03;2.50;;;;;;;;;;5036329;28;20936;-62
2022/05/25 00:53:53;;;;;;;3.23;2.60;;;;;;;;;;5036164;28;20504;-62
2022/05/25 00:56:22;;;;;;;2.40;2.20;;;;;;;;;;5036482;28;20453;-62
2022/05/25 00:58:51;;;;;;;2.67;2.47;;;;;;;;;;5036145;28;20801;-61
2022/05/25 01:01:20;;;;;;;2.60;2.40;;;;;;;;;;5036459;28;20456;-62
2022/05/25 01:03:47;;;;;;;3.43;2.33;;;;;;;;;;5035872;28;20483;-62
2022/05/25 01:06:19;;;;;;;2.90;2.20;;;;;;;;;;5035832;28;20453;-61
2022/05/25 01:08:49;;;;;;;2.93;2.70;;;;;;;;;;5036312;28;20440;-61
2022/05/25 01:11:22;;;;;;;4.10;2.70;;;;;;;;;;5036359;28;20453;-62
2022/05/25 01:13:53;;;;;;;2.97;2.40;;;;;;;;;;5036187;28;20464;-61
2022/05/25 01:16:28;;;;;;;2.70;2.50;;;;;;;;;;5035772;28;20453;-61
2022/05/25 01:18:57;;;;;;;2.63;2.43;;;;;;;;;;5036217;28;20466;-60
2022/05/25 01:21:27;;;;;;;2.77;2.50;;;;;;;;;;5035996;28;20449;-61
2022/05/25 01:23:58;;;;;;;4.87;2.80;;;;;;;;;;5035702;28;20468;-62
2022/05/25 01:26:32;;;;;;;2.60;2.40;;;;;;;;;;5035765;28;20419;-62
2022/05/25 01:29:04;;;;;;;2.60;2.37;;;;;;;;;;5036143;28;20433;-62
2022/05/25 01:31:37;;;;;;;2.63;2.27;;;;;;;;;;5035584;28;20925;-61
2022/05/25 01:34:07;;;;;;;2.60;2.40;;;;;;;;;;5036127;28;20469;-62
2022/05/25 01:36:38;;;;;;;3.27;2.23;;;;;;;;;;5035384;28;20460;-62
2022/05/25 01:39:06;;;;;;;2.93;2.23;;;;;;;;;;5036054;28;20807;-62
2022/05/25 01:41:39;;;;;;;5.07;3.13;;;;;;;;;;5035789;28;20445;-62
2022/05/25 01:44:08;;;;;;;4.53;2.60;;;;;;;;;;5035604;28;20460;-62
2022/05/25 01:46:39;;;;;;;3.00;2.37;;;;;;;;;;5035258;28;20456;-62
2022/05/25 01:49:08;;;;;;;2.60;2.33;;;;;;;;;;5035167;28;20448;-62
2022/05/25 01:51:50;;;;;;;3.63;2.57;;;;;;;;;;5035254;28;20460;-61
2022/05/25 01:54:20;;;;;;;2.80;2.60;;;;;;;;;;5034960;28;20488;-62
2022/05/25 01:56:49;;;;;;;3.37;2.30;;;;;;;;;;5035386;28;20700;-62
2022/05/25 01:59:18;;;;;;;3.30;2.47;;;;;;;;;;5035216;28;20503;-61
2022/05/25 02:04:19;;;;;;;3.10;2.50;;;;;;;;;;5035119;28;20449;-62
2022/05/25 02:04:40;;;;;;;4.53;2.57;;;;;;;;;;5059013;22;21088;-60
2022/05/25 02:07:15;;;;;;;4.00;2.90;;;;;;;;;;5035193;28;20417;-63
2022/05/25 02:09:47;;;;;;;2.20;2.00;;;;;;;;;;5035191;28;20435;-62
2022/05/25 02:12:22;;;;;;;4.43;3.20;;;;;;;;;;5035360;28;20425;-62
2022/05/25 02:14:51;;;;;;;4.00;2.60;;;;;;;;;;5035167;28;20496;-63
2022/05/25 02:17:25;;;;;;;3.20;2.20;;;;;;;;;;5035094;28;20467;-62
2022/05/25 02:19:57;;;;;;;5.27;2.57;;;;;;;;;;5035425;28;20452;-62
2022/05/25 02:22:27;;;;;;;3.10;2.80;;;;;;;;;;5035134;28;20460;-63
2022/05/25 02:25:00;;;;;;;3.00;2.77;;;;;;;;;;5035390;28;20461;-62
2022/05/25 02:27:31;;;;;;;4.20;2.70;;;;;;;;;;5034807;28;20441;-62
2022/05/25 02:30:00;;;;;;;3.85;3.47;;;;;;;;;;5034793;28;20429;-62
2022/05/25 02:32:32;;;;;;;3.60;2.50;;;;;;;;;;5034529;28;20579;-62
2022/05/25 02:35:00;;;;;;;3.95;3.55;;;;;;;;;;5034343;28;20524;-62
2022/05/25 02:37:29;;;;;;;3.30;3.00;;;;;;;;;;5034979;28;20266;-62
2022/05/25 02:39:56;;;;;;;4.00;2.90;;;;;;;;;;5034781;28;20455;-62
2022/05/25 02:42:24;;;;;;;3.60;3.30;;;;;;;;;;5034509;28;20457;-62
2022/05/25 02:44:52;;;;;;;3.33;2.73;;;;;;;;;;5034879;28;20468;-62
2022/05/25 02:47:21;;;;;;;3.83;3.20;;;;;;;;;;5034454;28;20451;-63
2022/05/25 02:49:49;;;;;;;6.28;3.50;;;;;;;;;;5033443;28;20820;-62
2022/05/25 02:52:17;;;;;;;4.30;3.90;;;;;;;;;;5039838;28;20217;-62
2022/05/25 02:54:44;;;;;;;8.57;4.20;;;;;;;;;;5049754;28;20477;-62
2022/05/25 02:57:11;;;;;;;5.95;3.58;;;;;;;;;;5051750;28;20453;-62
2022/05/25 02:59:39;;;;;;;3.83;3.50;;;;;;;;;;5045643;28;20761;-62
2022/05/25 03:02:06;;;;;;;5.60;4.00;;;;;;;;;;5040263;28;20968;-63
2022/05/25 03:04:34;;;;;;;4.32;3.70;;;;;;;;;;5039577;28;20483;-63
2022/05/25 03:07:03;;;;;;;5.97;4.40;;;;;;;;;;5042225;28;20205;-62
2022/05/25 03:09:30;;;;;;;8.33;3.93;;;;;;;;;;5041639;28;20441;-62
2022/05/25 03:11:57;;;;;;;7.60;4.60;;;;;;;;;;5040606;28;20967;-62
2022/05/25 03:14:25;;;;;;;8.40;4.73;;;;;;;;;;5041974;28;20460;-62
2022/05/25 03:16:52;;;;;;;4.90;4.50;;;;;;;;;;5040488;28;20441;-63
2022/05/25 03:19:19;;;;;;;5.93;4.67;;;;;;;;;;5038363;28;20441;-61
2022/05/25 03:21:47;;;;;;;8.15;5.15;;;;;;;;;;5034917;28;20449;-62
2022/05/25 03:24:16;;;;;;;7.17;5.10;;;;;;;;;;5034344;28;20260;-62
2022/05/25 03:26:43;;;;;;;6.47;4.80;;;;;;;;;;5033918;28;20437;-62
2022/05/25 03:29:11;;;;;;;6.40;5.07;;;;;;;;;;5034160;28;20824;-62
2022/05/25 03:31:38;;;;;;;5.70;5.07;;;;;;;;;;5033965;28;20445;-62
2022/05/25 03:34:06;;;;;;;6.57;5.43;;;;;;;;;;5033568;28;20468;-62
2022/05/25 03:36:33;;;;;;;6.20;5.33;;;;;;;;;;5033674;28;20912;-61
2022/05/25 03:39:00;;;;;;;6.13;5.50;;;;;;;;;;5034086;28;20452;-63
2022/05/25 03:41:29;;;;;;;6.07;5.07;;;;;;;;;;5033741;28;20449;-63
2022/05/25 03:43:56;;;;;;;8.60;5.80;;;;;;;;;;5033762;28;20465;-63
2022/05/25 03:46:24;;;;;;;6.77;5.70;;;;;;;;;;5034083;28;20445;-63
2022/05/25 03:48:51;;;;;;;6.03;5.43;;;;;;;;;;5033234;28;20452;-62
2022/05/25 03:51:18;;;;;;;9.90;5.57;;;;;;;;;;5033248;28;20974;-62
2022/05/25 03:53:46;;;;;;;5.97;5.20;;;;;;;;;;5033177;28;20468;-63
2022/05/25 03:56:13;;;;;;;8.03;6.00;;;;;;;;;;5033226;28;20485;-62
2022/05/25 03:58:43;;;;;;;6.50;5.40;;;13.90;90.70;;;;;;5033022;28;20449;-62
2022/05/25 04:01:10;;;;;;;6.90;6.20;;;12.00;99.90;;;;;;5032645;28;20836;-62
2022/05/25 04:03:37;;;;;;;7.97;5.37;;;12.40;99.90;;;;;;5033365;28;20920;-63
2022/05/25 04:06:04;;;;;;;5.77;5.17;;;12.80;99.90;;;;;;5034090;28;20433;-64
2022/05/25 04:09:47;;;;;;;7.93;6.63;;;13.40;99.90;;;;;;5162729;27;20572;-63
2022/05/25 04:12:14;;;;;;;5.57;4.73;;;13.70;99.90;;;;;;5160564;27;20444;-61
2022/05/25 04:14:41;;;;;;;7.07;5.53;;;14.10;99.90;;;;;;5165759;27;20464;-63
2022/05/25 04:17:08;;;;;;;7.17;5.70;;;14.40;99.00;;;;;;5173675;27;20451;-63
2022/05/25 04:19:38;;;;;;;7.33;5.47;;;14.70;98.00;;;;;;5173650;27;20817;-62
2022/05/25 04:22:05;;;;;;;6.17;4.63;;;15.00;97.10;;;;;;5173132;27;20515;-62
2022/05/25 04:24:32;;;;;;;5.83;5.27;;;15.30;96.00;;;;;;5172570;27;20460;-64
2022/05/25 04:27:02;;;;;;;5.70;4.93;;;15.50;95.30;;;;;;5172875;27;20446;-63
2022/05/25 04:29:29;;;;;;;7.67;6.30;;;15.70;94.50;;;;;;5172928;27;20492;-63
2022/05/25 04:31:56;;;;;;;5.70;5.20;;;15.90;93.60;;;;;;5172850;27;20447;-63
2022/05/25 04:34:23;;;;;;;6.70;5.20;;;16.10;92.90;;;;;;5173079;27;20466;-61
2022/05/25 04:36:50;;;;;;;5.33;4.83;;;16.20;91.90;;;;;;5172741;27;20818;-62
2022/05/25 04:39:17;;;;;;;5.63;5.07;;;16.20;91.30;;;;;;5173609;27;20932;-62
2022/05/25 04:41:44;;;;;;;8.70;5.00;;;16.40;91.00;;;;;;5173096;27;20936;-63
2022/05/25 04:44:12;;;;;;;7.63;4.80;;;16.60;90.40;;;;;;5172103;27;20466;-62
2022/05/25 04:46:40;;;;;;;7.00;5.27;;;16.70;89.00;;;;;;5159507;27;20477;-63
2022/05/25 04:49:08;;;;;;;7.20;5.30;;;16.90;87.50;;;;;;5161242;27;20839;-62
2022/05/25 04:51:35;;;;;;;5.70;5.20;;;17.00;86.10;;;;;;5172374;27;20450;-61
2022/05/25 04:54:02;;;;;;;7.87;6.23;;;17.10;84.50;;;;;;5171895;27;20572;-62
2022/05/25 04:59:16;;;;;;;6.90;5.60;;;17.20;82.10;;;;;;5172004;27;20412;-61
2022/05/25 05:01:43;;;;;;;6.10;5.40;;;17.30;81.70;;;;;;5172219;27;20446;-62
2022/05/25 05:04:10;;;;;;;6.30;5.67;;;17.40;80.80;;;;;;5171129;27;20482;-63
2022/05/25 05:06:37;;;;;;;5.10;4.70;;;17.40;79.80;;;;;;5172122;27;20453;-62
2022/05/25 05:09:06;;;;;;;6.03;5.50;;;17.40;79.00;;;;;;5171815;27;20848;-63
2022/05/25 05:11:33;;;;;;;5.67;5.07;;;17.40;78.10;;;;;;5171699;27;20456;-64
2022/05/25 05:14:00;;;;;;;6.03;5.43;;;17.50;77.80;;;;;;5171796;27;20466;-63
2022/05/25 05:16:29;;;;;;;6.50;5.90;;;17.50;76.70;;;;;;5170645;27;20483;-62
2022/05/25 05:18:56;;;;;;;6.90;5.83;;;17.50;76.40;;;;;;5170873;27;20446;-62
2022/05/25 05:21:23;;;;;;;6.93;6.23;;;17.50;76.50;;;;;;5152794;27;20821;-64
2022/05/25 05:23:50;;;;;;;6.37;5.77;;;17.60;76.10;;;;;;5137158;27;20464;-63
2022/05/25 05:26:17;;;;;;;6.70;6.00;;;17.70;75.30;;;;;;5139968;27;20466;-63
2022/05/25 05:28:45;;;;;;;6.47;5.90;;;17.80;74.50;;;;;;5149210;27;20467;-62
2022/05/25 05:31:14;;;;;;;8.80;6.20;;;17.70;73.70;;;;;;5152987;27;20464;-62
2022/05/25 05:33:43;;;;;;;6.00;5.40;;;17.60;73.60;;;;;;5151736;27;20459;-62
2022/05/25 05:36:14;;;;;;;6.90;6.00;;;17.50;74.20;;;;;;5139776;27;20458;-63
2022/05/25 05:38:45;;;;;;;10.07;6.47;;;17.50;74.30;;;;;;5146718;27;20821;-63
2022/05/25 05:41:13;;;;;;;7.67;6.83;;;17.60;74.00;;;;;;5153000;27;20454;-63
2022/05/25 05:43:40;;;;;;;9.67;6.87;;;17.50;74.00;;;;;;5151255;27;20497;-63
2022/05/25 05:46:08;;;;;;;9.23;6.10;;;17.50;74.10;;;;;;5157710;27;20454;-63
2022/05/25 05:48:37;;;;;;;8.53;7.37;;;17.60;73.80;;;;;;5152821;27;20483;-63
2022/05/25 05:51:06;;;;;;;8.30;7.40;;;17.80;73.10;;;;;;5150131;27;20541;-63
2022/05/25 05:53:34;;;;;;;7.80;7.10;;;17.80;72.50;;;;;;5156629;27;20439;-63
2022/05/25 05:56:02;;;;;;;11.80;7.00;;;17.70;72.60;;;;;;5150995;27;20449;-62
2022/05/25 05:58:29;;;;;;;7.17;6.43;;;17.60;73.50;;;;;;5156542;27;20438;-63
2022/05/25 06:00:56;;;;;;;6.87;6.17;;;17.70;73.70;;;;;;5151428;27;20493;-63
2022/05/25 06:03:23;;;;;;;8.37;6.77;;;17.80;73.20;;;;;;5154332;27;20441;-62
2022/05/25 06:05:50;;;;;;;9.57;8.10;;;17.90;73.30;;;;;;5155868;27;20450;-63
2022/05/25 06:08:23;;;;;;;8.43;7.53;;;18.00;72.40;;;;;;5156041;27;20476;-63
2022/05/25 06:10:50;;;;;;;7.10;6.50;;;17.90;71.70;;;;;;5156428;27;20424;-62
2022/05/25 06:13:17;;;;;;;8.20;7.40;;;17.80;71.40;;;;;;5156132;27;20436;-62
2022/05/25 06:21:18;;;;;;;8.27;7.47;;;17.40;72.40;;;;;;5135488;27;20477;-63
2022/05/25 06:23:47;;;;;;;8.40;7.60;;;17.20;72.70;;;;;;5155904;27;20454;-62
2022/05/25 06:26:15;;;;;;;7.17;6.47;;;17.10;73.70;;;;;;5156185;27;20485;-62
2022/05/25 06:28:42;;;;;;;9.93;7.87;;;17.00;73.90;;;;;;5156513;27;20498;-63
2022/05/25 06:31:10;;;;;;;7.63;6.80;;;17.00;74.10;;;;;;5154332;27;20459;-63
2022/05/25 06:33:38;;;;;;;9.37;7.67;;;17.00;73.80;;;;;;5156263;27;20447;-62
2022/05/25 06:36:16;;;;;;;8.47;7.47;;;16.90;74.00;;;;;;5155651;27;20525;-61
2022/05/25 06:38:43;;;;;;;8.23;6.70;;;16.90;74.30;;;;;;5156382;27;20464;-64
2022/05/25 06:41:12;;;;;;;7.90;7.13;;;16.80;74.70;;;;;;5156935;27;20446;-62
2022/05/25 06:43:39;;;;;;;7.77;6.97;;;16.70;74.90;;;;;;5155606;27;20428;-63
2022/05/25 06:46:07;;;;;;;11.90;8.57;;;16.70;75.60;;;;;;5156042;27;20449;-62
2022/05/25 06:48:35;;;;;;;9.33;7.70;;;16.70;75.90;;;;;;5155845;27;21004;-63
2022/05/25 06:51:10;;;;;;;11.47;8.10;;;16.80;76.10;;;;;;5156007;27;20446;-64
2022/05/25 06:53:37;;;;;;;8.30;6.80;;;16.80;76.40;;;;;;5156413;27;20500;-63
2022/05/25 06:56:05;;;;;;;9.07;7.10;;;16.90;75.60;;;;;;5155411;27;20532;-62
2022/05/25 06:58:33;;;;;;;9.13;7.20;;;16.90;75.40;;;;;;5155799;27;20475;-64
2022/05/25 07:01:01;;;;;;;9.13;7.43;;;17.00;75.30;;;;;;5156214;27;20937;-64
2022/05/25 07:03:28;;;;;;;7.80;6.27;;;17.00;75.20;;;;;;5155809;27;20517;-64
2022/05/25 07:05:55;;;;;;;7.47;6.40;;;17.10;75.30;;;;;;5156610;27;20433;-64
2022/05/25 07:08:22;;;;;;;7.30;5.50;;;17.20;75.20;;;;;;5155561;27;20456;-62
2022/05/25 07:10:50;;;;;;;6.03;5.40;;;17.30;74.90;;;;;;5155333;27;20463;-66
2022/05/25 07:13:18;;;;;;;5.90;5.30;;;17.20;73.90;;;;;;5156957;27;20488;-62
2022/05/25 07:15:46;;;;;;;5.30;4.10;;;17.00;74.00;;;;;;5155238;27;20473;-62
2022/05/25 07:18:20;;;;;;;4.97;4.13;;;16.80;74.30;;;;;;5156761;27;20846;-62
2022/05/25 07:20:47;;;;;;;4.90;4.40;;;16.80;75.10;;;;;;5147976;27;20934;-63
2022/05/25 07:23:15;;;;;;;5.10;4.17;;;16.90;75.10;;;;;;5155615;27;20845;-63
2022/05/25 07:25:42;;;;;;;7.77;4.67;;;16.90;74.40;;;;;;5156199;27;20477;-64
2022/05/25 07:28:10;;;;;;;3.90;3.60;;;16.90;73.40;;;;;;5156039;27;20442;-63
2022/05/25 07:30:37;;;;;;;6.80;3.93;;;16.90;72.20;;;;;;5155544;27;20554;-64
2022/05/25 07:33:06;;;;;;;3.60;3.00;;;16.80;71.30;;;;;;5165275;27;20450;-63
2022/05/25 07:35:33;;;;;;;4.60;2.93;;;16.60;70.70;;;;;;5156898;27;20465;-64
2022/05/25 07:38:00;;;;;;;3.00;2.70;;;16.40;70.40;;;;;;5155216;27;20454;-63
2022/05/25 07:40:31;;;;;;;4.10;2.70;;;16.20;70.50;;;;;;5156081;27;20439;-63
2022/05/25 07:43:03;;;;;;;3.80;3.00;;;16.20;70.80;;;;;;5156779;27;20473;-65
2022/05/25 07:45:32;;;;;;;2.60;2.40;;;16.10;70.90;;;;;;5161884;27;20468;-63
2022/05/25 07:48:00;;;;;;;4.23;3.27;;;16.20;70.50;;;;;;5163822;27;20543;-64
2022/05/25 07:50:30;;;;;;;3.23;2.43;;;16.30;69.50;;;;;;5168008;27;20503;-64
2022/05/25 07:52:59;;;;;;;4.60;2.50;;;16.50;67.90;;;;;;5170816;27;20525;-65
2022/05/25 07:55:26;;;;;;;3.43;3.00;;;16.50;67.00;;;;;;5151249;27;20459;-63
2022/05/25 07:57:53;;;;;;;2.50;2.30;;;16.60;66.90;;;;;;5161442;27;20428;-64
2022/05/25 08:00:25;;;;;;;4.03;2.93;;;16.70;66.10;;;;;;5172297;27;20441;-64
2022/05/25 08:05:46;;;;;;;2.63;2.20;;;16.70;65.20;;;;;;5111428;22;20487;-61
2022/05/25 08:08:16;;;;;;;3.70;2.27;;;16.60;64.70;;;;;;5051673;28;20525;-60
2022/05/25 08:10:45;;;;;;;2.63;1.73;;;16.70;64.60;;;;;;5065242;28;20470;-60
2022/05/25 08:13:17;;;;;;;2.50;2.27;;;16.90;63.60;;;;;;5071433;28;20862;-61
2022/05/25 08:15:44;;;;;;;2.67;2.37;;;17.20;61.80;;;;;;5034017;28;20480;-61
2022/05/25 08:18:11;;;;;;;3.73;2.40;;;17.20;60.60;;;;;;5033151;28;20448;-63
2022/05/25 08:20:39;;;;;;;7.83;2.27;;;17.20;60.70;;;;;;5033253;28;20471;-61
2022/05/25 08:23:09;;;;;;;3.37;3.07;;;17.20;60.10;;;;;;5047542;28;20450;-61
2022/05/25 08:25:37;;;;;;;3.50;2.30;;;17.20;60.50;;;;;;5053337;28;20499;-61
2022/05/25 08:28:05;;;;;;;2.53;1.80;;;17.30;60.30;;;;;;5053336;28;20938;-61
2022/05/25 08:30:33;;;;;;;3.30;2.10;;;17.40;59.60;;;;;;5052476;28;20493;-62
2022/05/25 08:33:01;;;;;;;2.23;2.03;;;17.60;58.90;;;;;;5053096;28;20448;-61
2022/05/25 08:35:29;;;;;;;9.00;2.40;;;18.00;57.80;;;;;;5052780;28;20460;-62
2022/05/25 08:37:57;;;;;;;2.00;1.90;;;18.30;56.30;;;;;;5053099;28;20500;-61
2022/05/25 08:40:28;;;;;;;3.33;2.23;;;18.50;55.20;;;;;;5052499;28;20510;-63
2022/05/25 08:42:59;;;;;;;2.90;1.90;;;18.60;54.80;;;;;;5052295;28;20497;-62
2022/05/25 08:45:36;;;;;;;3.07;2.00;;;18.80;54.40;;;;;;5051357;28;20478;-62
2022/05/25 08:48:06;;;;;;;2.20;1.50;;;19.10;53.50;;;;;;5071170;28;20469;-62
2022/05/25 08:50:34;;;;;;;2.33;1.70;;;19.30;52.70;;;;;;5073716;28;20504;-62
2022/05/25 08:53:03;;;;;;;2.20;1.60;;;19.30;52.00;;;;;;5063316;28;20519;-60
2022/05/25 08:55:56;;;;;;;3.60;1.93;;;19.30;52.00;;;;;;5053966;28;20498;-61
2022/05/25 08:58:28;;;;;;;3.33;1.90;;;19.30;51.80;;;;;;5055774;28;20448;-62
2022/05/25 09:00:59;;;;;;;5.50;1.83;;;19.30;51.80;;;;;;5055234;28;20520;-62
2022/05/25 09:03:36;;;;;;;3.07;2.30;;;19.40;51.90;;;;;;5055284;28;20461;-61
2022/05/25 09:06:08;;;;;;;2.97;1.90;;;19.30;51.70;;;;;;5071157;28;20486;-62
2022/05/25 09:08:42;;;;;;;4.73;2.20;;;19.10;52.10;;;;;;5075188;28;20438;-62
2022/05/25 09:11:15;;;;;;;2.67;1.77;;;19.00;52.40;;;;;;5055278;28;20471;-63
2022/05/25 09:13:45;;;;;;;3.40;2.30;;;19.20;52.40;;;;;;5059792;28;20944;-63
2022/05/25 09:16:19;;;;;;;3.07;2.00;;;19.50;52.30;;;;;;5076165;28;20481;-61
2022/05/25 09:19:00;;;;;;;4.20;2.40;;;19.70;51.60;;;;;;5075631;28;20457;-62
2022/05/25 09:21:31;;;;;;;2.40;2.20;;;19.60;51.10;;;;;;5074638;28;20441;-61
2022/05/25 09:24:01;;;;;;;3.30;2.47;;;19.30;50.90;;;;;;5075707;28;20523;-61
2022/05/25 09:26:31;;;;;;;3.60;2.30;;;19.10;51.40;;;;;;5075823;28;20452;-61
2022/05/25 09:29:05;;;;;;;3.53;2.63;;;18.80;51.90;;;;;;5074783;28;20473;-63
2022/05/25 09:31:37;;;;;;;3.23;2.80;;;18.60;52.60;;;;;;5074416;28;20448;-61
2022/05/25 09:34:10;;;;;;;4.87;2.67;;;18.70;52.90;;;;;;5075648;28;20928;-61
2022/05/25 09:36:44;;;;;;;3.70;2.80;;;18.90;52.70;;;;;;5075236;28;20434;-61
2022/05/25 09:39:16;;;;;;;6.00;3.60;;;19.30;52.70;;;;;;5074457;28;20473;-62
2022/05/25 09:41:47;;;;;;;3.20;2.80;;;19.70;52.00;;;;;;5076088;28;20449;-60
2022/05/25 09:44:19;;;;;;;3.50;3.03;;;19.90;51.10;;;;;;5074760;28;20449;-61
2022/05/25 09:46:52;;;;;;;3.67;2.90;;;20.00;50.70;;;;;;5075366;28;20428;-62
2022/05/25 09:49:41;;;;;;;5.67;2.30;;;20.20;50.50;;;;;;5075097;28;20560;-61
2022/05/25 09:52:15;;;;;;;4.40;2.27;;;20.60;50.00;;;;;;5074166;28;20446;-61
2022/05/25 09:54:46;;;;;;;3.30;2.27;;;21.10;48.80;;;;;;5074368;28;20845;-60
2022/05/25 09:57:25;;;;;;;3.00;2.47;;;21.40;47.90;;;;;;5075069;28;20508;-62
2022/05/25 10:00:00;;;;;;;2.40;2.20;;;21.80;47.10;;;;;;5074973;28;20926;-61
2022/05/25 10:02:35;;;;;;;2.80;2.30;;;22.20;46.10;;;;;;5075350;28;20927;-61
2022/05/25 10:05:15;;;;;;;1.60;1.50;;;22.40;45.70;;;;;;5074354;28;20951;-61
2022/05/25 10:07:53;;;;;;;2.10;2.00;;;22.60;44.70;;;;;;5076951;28;20424;-61
2022/05/25 10:10:27;;;;;;;2.93;2.40;;;22.70;43.80;;;;;;5076110;28;20559;-60
2022/05/25 10:13:15;;;;;;;3.20;2.33;;;22.50;43.70;;;;;;5073984;28;20455;-62
2022/05/25 10:15:42;;;;;;;3.83;2.40;;;22.20;44.00;;;;;;5075340;28;20448;-61
2022/05/25 10:18:15;;;;;;;4.90;2.00;;;21.90;44.50;;;;;;5074423;28;20973;-61
2022/05/25 10:20:47;;;;;;;2.90;2.57;;;21.70;45.00;;;;;;5075187;28;20430;-61
2022/05/25 10:23:21;;;;;;;4.20;2.50;;;21.60;45.20;;;;;;5075774;28;20446;-61
2022/05/25 10:25:51;;;;;;;4.13;3.00;;;21.50;45.40;;;;;;5075740;28;20490;-60
2022/05/25 10:28:25;;;;;;;3.67;3.27;;;21.60;45.70;;;;;;5074522;28;20445;-60
2022/05/25 10:36:56;;;;;;;2.40;2.17;;;21.60;44.90;;;;;;5036710;28;20447;-64
2022/05/25 10:39:32;;;;;;;2.37;2.07;;;21.70;44.50;;;;;;5074458;28;20476;-63
2022/05/25 10:42:03;;;;;;;4.03;2.40;;;22.00;44.00;;;;;;5074472;28;20439;-64
2022/05/25 10:44:37;;;;;;;3.60;2.13;;;22.40;43.50;;;;;;5075410;28;20553;-64
2022/05/25 10:47:08;;;;;;;3.77;1.97;;;22.70;42.50;;;;;;5074814;28;20429;-62
2022/05/25 10:49:40;;;;;;;3.70;2.50;;;22.80;42.30;;;;;;5072459;28;20469;-62
2022/05/25 10:52:13;;;;;;;3.83;2.47;;;23.20;42.40;;;;;;5075031;28;20434;-61
2022/05/25 10:54:47;;;;;;;2.63;2.50;;;23.30;41.70;;;;;;5074360;28;20471;-62
2022/05/25 10:57:35;;;;;;;3.97;1.97;;;23.20;40.60;;;;;;5073796;28;20482;-62
2022/05/25 11:00:07;;;;;;;2.10;1.90;;;23.10;40.30;;;;;;5035446;28;20456;-62
2022/05/25 11:02:53;;;;;;;2.60;2.40;;;23.00;40.20;;;;;;5073890;28;20458;-63
2022/05/25 11:05:26;;;;;;;2.27;2.17;;;22.80;40.00;;;;;;5075614;28;20986;-62
2022/05/25 11:08:03;;;;;;;3.00;1.93;;;22.20;40.70;;;;;;5075008;28;20453;-65
2022/05/25 11:10:43;;;;;;;4.70;2.50;;;21.80;41.40;;;;;;5074648;28;20475;-64
2022/05/25 11:13:32;;;;;;;3.80;2.70;;;21.50;42.00;;;;;;5072045;28;20521;-63
2022/05/25 11:16:16;;;;;;;2.57;2.10;;;21.00;42.60;;;;;;5060684;28;20482;-62
2022/05/25 11:18:55;;;;;;;4.03;2.30;;;20.90;43.50;;;;;;5072350;28;20446;-63
2022/05/25 11:21:36;;;;;;;2.20;2.00;;;20.80;44.40;;;;;;5073378;28;20192;-62
2022/05/25 11:24:13;;;;;;;2.33;2.00;;;20.70;43.70;;;;;;5072576;28;20904;-62
2022/05/25 11:26:53;;;;;;;2.20;2.00;;;20.60;43.50;;;;;;5073693;28;20836;-62
2022/05/25 11:29:33;;;;;;;2.37;2.17;;;20.50;43.50;;;;;;5074450;28;20433;-63
2022/05/25 11:32:13;;;;;;;2.83;2.63;;;20.70;43.60;;;;;;5072285;28;20438;-62
2022/05/25 11:34:53;;;;;;;3.83;2.10;;;21.00;43.30;;;;;;5071806;28;20474;-62
2022/05/25 11:37:32;;;;;;;3.53;2.40;;;21.40;43.10;;;;;;5073652;28;20794;-63
2022/05/25 11:40:07;;;;;;;4.47;2.80;;;21.80;42.70;;;;;;5073892;28;20422;-63
2022/05/25 11:42:55;;;;;;;2.63;2.00;;;22.00;42.20;;;;;;5074206;28;20425;-64
2022/05/25 11:45:34;;;;;;;4.80;2.53;;;22.10;42.20;;;;;;5076777;28;20951;-64
2022/05/25 11:48:22;;;;;;;2.13;1.60;;;22.10;42.00;;;;;;5075288;28;20437;-63
2022/05/25 11:50:59;;;;;;;1.80;1.53;;;22.30;42.10;;;;;;5072568;28;20474;-63
2022/05/25 11:53:46;;;;;;;1.80;1.50;;;22.50;41.20;;;;;;5073697;28;20492;-65
2022/05/25 11:56:26;;;;;;;1.80;1.30;;;22.40;40.50;;;;;;5072181;28;20472;-64
2022/05/25 11:59:11;;;;;;;1.50;1.30;;;22.60;40.10;;;;;;5053370;28;20891;-63
2022/05/25 12:01:44;;;;;;;2.43;1.50;;;23.30;39.60;;;;;;5053630;28;20428;-63
2022/05/25 12:04:40;;;;;;;6.53;1.73;;;24.10;38.80;;;;;;5054250;28;20429;-63
2022/05/25 12:07:31;;;;;;;3.70;1.70;;;24.30;38.20;;;;;;5047894;28;20458;-62
2022/05/25 12:10:25;;;;;;;2.30;2.17;;;24.30;38.00;;;;;;5054655;28;20526;-62
2022/05/25 12:12:58;;;;;;;3.00;1.70;;;24.00;38.50;;;;;;5054808;28;20431;-63
2022/05/25 12:15:30;;;;;;;1.63;1.53;;;24.20;38.50;;;;;;5054553;28;20471;-62
2022/05/25 12:18:20;;;;;;;2.13;1.87;;;24.90;38.00;;;;;;5055097;28;20522;-62
2022/05/25 12:20:54;;;;;;;1.77;1.67;;;25.40;36.40;;;;;;5054927;28;20525;-63
2022/05/25 12:23:26;;;;;;;2.10;1.90;;;25.60;35.50;;;;;;5054975;28;20439;-63
2022/05/25 12:25:56;;;;;;;2.13;1.50;;;25.70;35.20;;;;;;5054793;28;21001;-61
2022/05/25 12:28:27;;;;;;;5.77;1.60;;;25.90;34.50;;;;;;5070864;28;20464;-61
2022/05/25 12:30:58;;;;;;;1.93;1.60;;;25.50;34.50;;;;;;5076725;28;21108;-62
2022/05/25 12:33:26;;;;;;;1.90;1.43;;;25.20;35.10;;;;;;5077970;28;20437;-60
2022/05/25 12:35:56;;;;;;;1.57;1.43;;;24.90;35.20;;;;;;5076253;28;20490;-61
2022/05/25 12:38:26;;;;;;;1.53;1.43;;;24.70;35.30;;;;;;5077354;28;20911;-61
2022/05/25 12:40:54;;;;;;;2.80;1.53;;;24.40;35.80;;;;;;5077455;28;20946;-61
2022/05/25 12:43:54;;;;;;;3.30;1.40;;;24.40;36.10;;;;;;5077188;28;20446;-61
2022/05/25 12:49:32;;;;;;;2.27;2.07;;;24.00;37.00;;;;;;5042954;28;20459;-61
2022/05/25 12:52:00;;;;;;;3.10;1.50;;;23.80;37.10;;;;;;5077002;28;20476;-61
2022/05/25 12:54:31;;;;;;;2.53;1.50;;;23.80;37.40;;;;;;5076858;28;20546;-61
2022/05/25 12:57:00;;;;;;;4.40;1.37;;;23.90;37.40;;;;;;5076757;28;20462;-62
2022/05/25 12:59:33;;;;;;;5.73;1.63;;;23.80;36.80;;;;;;5076611;28;20442;-61
2022/05/25 13:02:25;;;;;;;2.13;1.10;;;23.40;36.90;;;;;;5076671;28;20431;-61
2022/05/25 13:04:53;;;;;;;1.17;0.90;;;23.40;37.60;;;;;;5076565;28;20981;-61
2022/05/25 13:07:39;;;;;;;2.10;1.33;;;23.40;36.50;;;;;;5076791;28;20449;-62
2022/05/25 13:10:19;;;;;;;4.87;1.33;;;23.10;36.30;;;;;;5072875;28;20457;-61
2022/05/25 13:12:55;;;;;;;1.70;1.30;;;23.10;36.70;;;;;;5076043;28;20425;-62
2022/05/25 13:15:52;;;;;;;1.77;1.20;;;23.40;36.80;;;;;;5076498;28;20545;-62
2022/05/25 13:18:46;;;;;;;1.10;0.90;;;23.80;36.20;;;;;;5077182;28;20529;-61
2022/05/25 13:21:47;;;;;;;1.10;0.80;;;23.80;35.20;;;;;;5076698;28;20545;-62
2022/05/25 13:25:05;;;;;;;2.40;1.03;;;23.80;35.30;;;;;;5075510;28;20446;-61
2022/05/25 13:27:56;;;;;;;1.80;0.80;;;23.80;35.40;;;;;;5032799;28;20481;-60
2022/05/25 13:30:30;;;;;;;2.37;0.90;;;23.80;34.80;;;;;;5076094;28;20431;-61
2022/05/25 13:33:00;;;;;;;3.10;0.97;;;23.40;34.90;;;;;;5076274;28;20433;-61
2022/05/25 13:35:46;;;;;;;0.90;0.70;;;22.90;35.00;;;;;;5075423;28;20462;-61
2022/05/25 13:38:27;;;;;;;1.53;1.00;;;22.80;35.90;;;;;;5075794;28;20434;-61
2022/05/25 13:40:59;;;;;;;3.70;1.40;;;22.90;36.30;;;;;;5075048;28;20425;-62
2022/05/25 13:43:49;;;;;;;2.33;1.00;;;23.10;36.50;;;;;;5075631;28;20501;-63
2022/05/25 13:46:40;;;;;;;4.30;1.20;;;23.20;36.30;;;;;;5074922;28;20466;-61
2022/05/25 13:49:09;;;;;;;0.80;0.60;;;23.30;36.40;;;;;;5075631;28;20496;-62
2022/05/25 13:51:36;;;;;;;1.70;1.00;;;23.30;36.30;;;;;;5075160;28;20481;-61
2022/05/25 13:54:26;;;;;;;2.23;1.60;;;23.30;36.20;;;;;;5075070;28;20446;-62
2022/05/25 13:56:53;;;;;;;2.13;1.30;;;23.20;36.00;;;;;;5074988;28;20928;-61
2022/05/25 13:59:30;;;;;;;1.50;1.20;;;23.00;36.10;;;;;;5075527;28;20441;-62
2022/05/25 14:02:25;;;;;;;1.47;0.80;;;22.80;36.40;;;;;;5075427;28;20747;-62
2022/05/25 14:04:56;;;;;;;1.70;1.10;;;22.70;36.80;;;;;;5074785;28;20488;-62
2022/05/25 14:07:30;;;;;;;1.67;0.90;;;22.50;37.00;;;;;;5115101;22;20576;-64